Time;durP1;ratioP1;P1;durP2;ratioP2;P2;SDS_P1;SDS_P2;PMS_P1;PMS_P2;Temp;Humidity;BMP_temperature;BMP_pressure;BME280_temperature;BME280_humidity;BME280_pressure;Samples;Min_cycle;Max_cycle;Signal;HPM_P1;HPM_P2
2022/10/27 00:01:06;;;;;;;13.10;10.47;;;13.60;99.90;;;;;;5115116;28;20730;-57
2022/10/27 00:03:34;;;;;;;16.00;10.80;;;13.60;99.90;;;;;;5098901;28;20272;-55
2022/10/27 00:06:05;;;;;;;13.60;11.27;;;13.60;99.90;;;;;;5094761;28;20692;-57
2022/10/27 00:08:34;;;;;;;12.93;11.50;;;13.60;99.90;;;;;;5094519;28;20230;-57
2022/10/27 00:11:06;;;;;;;12.73;11.17;;;13.60;99.90;;;;;;5094624;28;20229;-57
2022/10/27 00:13:34;;;;;;;13.83;11.33;;;13.60;99.90;;;;;;5094479;28;20264;-57
2022/10/27 00:16:06;;;;;;;14.67;12.00;;;13.60;99.90;;;;;;5094494;28;20276;-57
2022/10/27 00:18:34;;;;;;;12.80;11.50;;;13.60;99.90;;;;;;5094361;28;20217;-57
2022/10/27 00:21:05;;;;;;;14.30;11.23;;;13.60;99.90;;;;;;5110011;28;20557;-57
2022/10/27 00:23:34;;;;;;;13.07;11.43;;;13.60;99.90;;;;;;5109509;28;20225;-56
2022/10/27 00:26:04;;;;;;;12.13;10.93;;;13.60;99.90;;;;;;5114787;28;20282;-57
2022/10/27 00:28:32;;;;;;;15.77;12.83;;;13.60;99.90;;;;;;5114489;28;20233;-57
2022/10/27 00:31:02;;;;;;;13.10;11.07;;;13.50;99.90;;;;;;5114452;28;20236;-57
2022/10/27 00:33:31;;;;;;;12.87;11.37;;;13.60;99.90;;;;;;5099104;28;20229;-57
2022/10/27 00:36:04;;;;;;;14.13;11.97;;;13.50;99.90;;;;;;5093850;28;20750;-57
2022/10/27 00:38:32;;;;;;;14.83;11.00;;;13.50;99.90;;;;;;5093987;28;20622;-57
2022/10/27 00:41:00;;;;;;;15.37;11.00;;;13.50;99.90;;;;;;5094305;28;20296;-57
2022/10/27 00:43:31;;;;;;;13.73;11.57;;;13.50;99.90;;;;;;5094061;28;20658;-55
2022/10/27 00:46:04;;;;;;;13.43;10.70;;;13.50;99.90;;;;;;5093880;28;20237;-57
2022/10/27 00:48:34;;;;;;;13.47;11.40;;;13.50;99.90;;;;;;5095031;28;20712;-57
2022/10/27 00:51:03;;;;;;;16.60;11.73;;;13.50;99.90;;;;;;5096331;28;20214;-56
2022/10/27 00:53:32;;;;;;;14.23;11.27;;;13.40;99.90;;;;;;5108949;28;20233;-57
2022/10/27 00:56:01;;;;;;;15.30;12.23;;;13.40;99.90;;;;;;5114446;28;20229;-57
2022/10/27 00:58:31;;;;;;;13.33;11.17;;;13.40;99.90;;;;;;5113902;28;20240;-56
2022/10/27 01:01:00;;;;;;;13.57;10.70;;;13.40;99.90;;;;;;5113839;28;20233;-56
2022/10/27 01:03:29;;;;;;;17.53;11.93;;;13.40;99.90;;;;;;5098835;28;20652;-57
2022/10/27 01:05:58;;;;;;;12.23;11.03;;;13.40;99.90;;;;;;5093756;28;20286;-57
2022/10/27 01:08:27;;;;;;;13.70;11.13;;;13.30;99.90;;;;;;5093388;28;20223;-56
2022/10/27 01:10:55;;;;;;;12.17;10.87;;;13.40;99.90;;;;;;5093844;28;20627;-57
2022/10/27 01:13:24;;;;;;;11.80;10.27;;;13.40;99.90;;;;;;5093504;28;20595;-57
2022/10/27 01:16:05;;;;;;;13.70;10.67;;;13.50;99.90;;;;;;5093643;28;20590;-57
2022/10/27 01:18:40;;;;;;;11.60;9.67;;;13.50;99.90;;;;;;5093417;28;20584;-57
2022/10/27 01:21:41;;;;;;;13.77;11.73;;;13.40;99.90;;;;;;5108625;28;20223;-57
2022/10/27 01:24:41;;;;;;;12.93;11.13;;;13.40;99.90;;;;;;5093224;28;20234;-56
2022/10/27 01:27:35;;;;;;;13.40;12.00;;;13.30;99.90;;;;;;5093815;28;20746;-57
2022/10/27 01:30:09;;;;;;;14.37;11.20;;;13.30;99.90;;;;;;5090301;28;20283;-56
2022/10/27 01:32:48;;;;;;;14.80;11.13;;;13.30;99.90;;;;;;5093355;28;20237;-57
2022/10/27 01:35:23;;;;;;;15.33;12.07;;;13.30;99.90;;;;;;5086048;28;20670;-56
2022/10/27 01:37:58;;;;;;;13.37;10.63;;;13.30;99.90;;;;;;5093044;28;20245;-57
2022/10/27 01:40:30;;;;;;;12.83;10.80;;;13.20;99.90;;;;;;5093182;28;20226;-56
2022/10/27 01:43:02;;;;;;;16.20;11.13;;;13.20;99.90;;;;;;5093557;28;20590;-56
2022/10/27 01:45:33;;;;;;;14.50;11.83;;;13.30;99.90;;;;;;5092669;28;20241;-57
2022/10/27 01:48:06;;;;;;;12.30;10.57;;;13.30;99.90;;;;;;5092511;28;20241;-57
2022/10/27 01:50:36;;;;;;;14.47;11.10;;;13.20;99.90;;;;;;5092535;28;20279;-57
2022/10/27 01:53:24;;;;;;;12.37;10.70;;;13.20;99.90;;;;;;5086675;28;20697;-56
2022/10/27 01:56:01;;;;;;;12.17;10.87;;;13.20;99.90;;;;;;5092920;28;20221;-57
2022/10/27 01:58:40;;;;;;;13.13;10.93;;;13.20;99.90;;;;;;5092682;28;20221;-57
2022/10/27 02:01:25;;;;;;;15.90;11.07;;;13.20;99.90;;;;;;5092696;28;20237;-57
2022/10/27 02:04:00;;;;;;;13.63;10.80;;;13.20;99.90;;;;;;5093138;28;20291;-57
2022/10/27 02:06:34;;;;;;;17.47;11.33;;;13.20;99.90;;;;;;5092799;28;20236;-56
2022/10/27 02:09:10;;;;;;;12.40;11.10;;;13.20;99.90;;;;;;5092986;28;20688;-57
2022/10/27 02:11:42;;;;;;;12.73;11.20;;;13.10;99.90;;;;;;5092785;28;20236;-57
2022/10/27 02:14:11;;;;;;;12.93;10.70;;;13.10;99.90;;;;;;5092969;28;20234;-57
2022/10/27 02:16:43;;;;;;;14.43;11.40;;;13.10;99.90;;;;;;5092743;28;20642;-57
2022/10/27 02:19:17;;;;;;;13.90;10.90;;;13.10;99.90;;;;;;5092599;28;20242;-57
2022/10/27 02:21:48;;;;;;;13.43;11.20;;;13.10;99.90;;;;;;5100710;28;20220;-57
2022/10/27 02:24:16;;;;;;;15.10;10.70;;;13.10;99.90;;;;;;5092495;28;20237;-57
2022/10/27 02:26:51;;;;;;;16.63;12.10;;;13.10;99.90;;;;;;5092377;28;20592;-56
2022/10/27 02:29:24;;;;;;;14.17;11.17;;;13.10;99.90;;;;;;5092807;28;20691;-57
2022/10/27 02:31:56;;;;;;;13.73;11.07;;;13.10;99.90;;;;;;5092131;28;20234;-57
2022/10/27 02:34:27;;;;;;;15.60;10.77;;;13.00;99.90;;;;;;5092303;28;20233;-57
2022/10/27 02:36:55;;;;;;;15.23;10.87;;;13.10;99.90;;;;;;5092305;28;20249;-57
2022/10/27 02:39:23;;;;;;;14.03;10.67;;;13.10;99.90;;;;;;5092672;28;20225;-57
2022/10/27 02:41:51;;;;;;;13.07;10.73;;;13.00;99.90;;;;;;5092292;28;20221;-57
2022/10/27 02:44:19;;;;;;;12.43;9.73;;;13.00;99.90;;;;;;5092317;28;20233;-55
2022/10/27 02:46:47;;;;;;;11.57;10.47;;;13.00;99.90;;;;;;5092063;28;20272;-57
2022/10/27 02:49:19;;;;;;;11.63;9.63;;;13.00;99.90;;;;;;5092325;28;20245;-57
2022/10/27 02:51:49;;;;;;;12.47;10.83;;;13.00;99.90;;;;;;5100499;28;20692;-56
2022/10/27 02:54:17;;;;;;;12.57;10.63;;;13.00;99.90;;;;;;5094806;28;20224;-56
2022/10/27 02:56:45;;;;;;;13.97;10.77;;;13.00;99.90;;;;;;5092393;28;20228;-57
2022/10/27 02:59:13;;;;;;;14.37;10.63;;;13.00;99.90;;;;;;5085299;28;20233;-56
2022/10/27 03:01:41;;;;;;;13.43;10.73;;;12.90;99.90;;;;;;5075078;28;20249;-55
2022/10/27 03:04:09;;;;;;;11.63;10.20;;;12.90;99.90;;;;;;5087788;28;20222;-57
2022/10/27 03:06:37;;;;;;;11.33;9.97;;;12.90;99.90;;;;;;5096012;28;20242;-57
2022/10/27 03:09:06;;;;;;;12.90;10.30;;;12.90;99.90;;;;;;5096206;28;20243;-57
2022/10/27 03:11:34;;;;;;;13.30;10.73;;;12.90;99.90;;;;;;5095639;28;20226;-56
2022/10/27 03:14:03;;;;;;;13.97;10.00;;;12.90;99.90;;;;;;5096037;28;20758;-57
2022/10/27 03:16:31;;;;;;;14.20;10.40;;;12.90;99.90;;;;;;5095583;28;20221;-57
2022/10/27 03:18:59;;;;;;;13.67;10.80;;;12.90;99.90;;;;;;5095626;28;20218;-57
2022/10/27 03:21:27;;;;;;;11.83;10.67;;;12.90;99.90;;;;;;5101626;28;20626;-56
2022/10/27 03:23:55;;;;;;;11.93;10.13;;;12.90;99.90;;;;;;5097689;28;20236;-57
2022/10/27 03:26:24;;;;;;;12.10;10.17;;;12.80;99.90;;;;;;5095474;28;20234;-56
2022/10/27 03:28:52;;;;;;;14.10;10.13;;;12.80;99.90;;;;;;5095470;28;20237;-57
2022/10/27 03:31:20;;;;;;;10.73;9.40;;;12.90;99.90;;;;;;5095080;28;20714;-57
2022/10/27 03:33:48;;;;;;;12.83;10.30;;;12.80;99.90;;;;;;5095697;28;20228;-57
2022/10/27 03:36:16;;;;;;;12.47;9.57;;;12.80;99.90;;;;;;5095451;28;20248;-57
2022/10/27 03:38:44;;;;;;;10.10;9.10;;;12.80;99.90;;;;;;5095261;28;20233;-56
2022/10/27 03:41:12;;;;;;;10.90;9.67;;;12.80;99.90;;;;;;5095179;28;20278;-57
2022/10/27 03:43:41;;;;;;;13.50;10.80;;;12.80;99.90;;;;;;5095419;28;20222;-57
2022/10/27 03:46:10;;;;;;;11.97;10.20;;;12.80;99.90;;;;;;5095151;28;20226;-57
2022/10/27 03:48:38;;;;;;;12.17;9.03;;;12.80;99.90;;;;;;5094966;28;20250;-57
2022/10/27 03:51:06;;;;;;;17.47;10.30;;;12.80;99.90;;;;;;5098057;28;20218;-55
2022/10/27 03:53:35;;;;;;;12.77;9.60;;;12.70;99.90;;;;;;5099765;28;20233;-56
2022/10/27 03:56:03;;;;;;;14.17;9.83;;;12.70;99.90;;;;;;5094949;28;20267;-57
2022/10/27 03:58:31;;;;;;;12.10;8.97;;;12.70;99.90;;;;;;5095046;28;20274;-57
2022/10/27 04:01:02;;;;;;;14.33;9.30;;;12.70;99.90;;;;;;5094457;28;20240;-57
2022/10/27 04:03:30;;;;;;;12.77;9.77;;;12.70;99.90;;;;;;5095054;28;20646;-57
2022/10/27 04:05:59;;;;;;;10.00;8.73;;;12.70;99.90;;;;;;5094811;28;20230;-56
2022/10/27 04:08:27;;;;;;;10.70;9.47;;;12.70;99.90;;;;;;5094531;28;20237;-57
2022/10/27 04:10:55;;;;;;;12.90;10.37;;;12.70;99.90;;;;;;5094192;28;20225;-56
2022/10/27 04:13:23;;;;;;;11.77;9.13;;;12.60;99.90;;;;;;5094920;28;20231;-57
2022/10/27 04:15:59;;;;;;;12.23;9.30;;;12.60;99.90;;;;;;5094649;28;20589;-57
2022/10/27 04:18:29;;;;;;;9.03;7.93;;;12.60;99.90;;;;;;5094632;28;20584;-56
2022/10/27 04:21:01;;;;;;;10.90;8.30;;;12.60;99.90;;;;;;5096167;28;20230;-57
2022/10/27 04:23:29;;;;;;;8.77;7.87;;;12.60;99.90;;;;;;5100031;28;20240;-56
2022/10/27 04:25:57;;;;;;;11.87;9.07;;;12.60;99.90;;;;;;5094609;28;20659;-57
2022/10/27 04:28:25;;;;;;;9.40;8.20;;;12.50;99.90;;;;;;5094444;28;20234;-56
2022/10/27 04:30:54;;;;;;;8.87;7.97;;;12.50;99.90;;;;;;5093868;28;20639;-57
2022/10/27 04:33:22;;;;;;;11.40;8.40;;;12.40;99.90;;;;;;5094801;28;20634;-56
2022/10/27 04:35:58;;;;;;;13.17;9.20;;;12.40;99.90;;;;;;5094197;28;20627;-57
2022/10/27 04:38:26;;;;;;;10.40;8.77;;;12.40;99.90;;;;;;5094218;28;20237;-56
2022/10/27 04:40:54;;;;;;;11.17;8.60;;;12.40;99.90;;;;;;5094356;28;20232;-57
2022/10/27 04:43:22;;;;;;;10.57;9.37;;;12.30;99.90;;;;;;5093971;28;20242;-57
2022/10/27 04:45:50;;;;;;;10.17;9.17;;;12.30;99.90;;;;;;5094129;28;20228;-56
2022/10/27 04:48:18;;;;;;;11.63;9.10;;;12.30;99.90;;;;;;5085843;28;20232;-57
2022/10/27 04:50:46;;;;;;;9.33;8.33;;;12.40;99.90;;;;;;5109205;28;20274;-57
2022/10/27 04:53:16;;;;;;;15.43;10.80;;;12.30;99.90;;;;;;5104658;28;20261;-55
2022/10/27 04:55:44;;;;;;;12.67;10.33;;;12.40;99.90;;;;;;5114059;28;20238;-56
2022/10/27 04:58:12;;;;;;;13.07;10.53;;;12.30;99.90;;;;;;5114442;28;20751;-56
2022/10/27 05:00:41;;;;;;;12.43;10.33;;;12.30;99.90;;;;;;5080330;28;20234;-56
2022/10/27 05:03:09;;;;;;;11.87;10.23;;;12.30;99.90;;;;;;5086270;28;20228;-56
2022/10/27 05:05:37;;;;;;;11.80;10.43;;;12.30;99.90;;;;;;5093671;28;20308;-57
2022/10/27 05:08:05;;;;;;;13.87;11.20;;;12.30;99.90;;;;;;5093821;28;20604;-56
2022/10/27 05:10:35;;;;;;;14.53;11.27;;;12.40;99.90;;;;;;5093532;28;20585;-56
2022/10/27 05:13:03;;;;;;;12.93;11.13;;;12.30;99.90;;;;;;5093534;28;20220;-57
2022/10/27 05:15:31;;;;;;;16.43;12.63;;;12.30;99.90;;;;;;5093537;28;20225;-56
2022/10/27 05:17:59;;;;;;;15.60;11.90;;;12.30;99.90;;;;;;5093454;28;20282;-56
2022/10/27 05:20:27;;;;;;;15.20;11.50;;;12.30;99.90;;;;;;5106466;28;20638;-56
2022/10/27 05:22:55;;;;;;;15.00;11.63;;;12.30;99.90;;;;;;5105104;28;20228;-56
2022/10/27 05:25:23;;;;;;;11.83;10.70;;;12.30;99.90;;;;;;5113658;28;20298;-56
2022/10/27 05:27:53;;;;;;;15.60;12.63;;;12.40;99.90;;;;;;5113667;28;20321;-57
2022/10/27 05:30:22;;;;;;;15.63;11.40;;;12.30;99.90;;;;;;5113452;28;20221;-56
2022/10/27 05:32:50;;;;;;;12.93;11.37;;;12.30;99.90;;;;;;5103700;28;20275;-56
2022/10/27 05:35:18;;;;;;;13.30;11.27;;;12.30;99.90;;;;;;5093053;28;20572;-57
2022/10/27 05:37:46;;;;;;;13.87;11.57;;;12.30;99.90;;;;;;5092806;28;20245;-56
2022/10/27 05:40:15;;;;;;;16.20;12.30;;;12.20;99.90;;;;;;5093095;28;20236;-56
2022/10/27 05:42:50;;;;;;;13.17;11.53;;;12.30;99.90;;;;;;5092988;28;20230;-57
2022/10/27 05:45:21;;;;;;;13.87;12.33;;;12.20;99.90;;;;;;5093297;28;20233;-57
2022/10/27 05:47:49;;;;;;;15.00;13.50;;;12.30;99.90;;;;;;5092826;28;20592;-56
2022/10/27 05:50:17;;;;;;;14.73;13.20;;;12.30;99.90;;;;;;5093092;28;20221;-56
2022/10/27 05:52:46;;;;;;;14.33;12.60;;;12.30;99.90;;;;;;5100957;28;20322;-55
2022/10/27 05:55:14;;;;;;;14.23;12.77;;;12.40;99.90;;;;;;5092904;28;20270;-56
2022/10/27 05:57:43;;;;;;;16.30;13.33;;;12.30;99.90;;;;;;5092994;28;20274;-56
2022/10/27 06:00:11;;;;;;;16.97;14.10;;;12.30;99.90;;;;;;5092326;28;20232;-53
2022/10/27 06:02:40;;;;;;;16.17;13.77;;;12.30;99.90;;;;;;5093180;28;20239;-56
2022/10/27 06:05:09;;;;;;;17.03;14.60;;;12.30;99.90;;;;;;5092881;28;20646;-56
2022/10/27 06:07:37;;;;;;;16.90;13.40;;;12.30;99.90;;;;;;5092811;28;20247;-54
2022/10/27 06:10:05;;;;;;;17.40;14.80;;;12.20;99.90;;;;;;5092972;28;20282;-57
2022/10/27 06:12:33;;;;;;;16.13;14.20;;;12.20;99.90;;;;;;5092588;28;20228;-57
2022/10/27 06:15:01;;;;;;;20.40;16.40;;;12.20;99.90;;;;;;5092678;28;20247;-56
2022/10/27 06:17:29;;;;;;;20.63;16.43;;;12.20;99.90;;;;;;5092505;28;20224;-56
2022/10/27 06:19:59;;;;;;;19.97;15.30;;;12.20;99.90;;;;;;5092491;28;20222;-56
2022/10/27 06:22:27;;;;;;;20.53;16.70;;;12.30;99.90;;;;;;5100923;28;20225;-56
2022/10/27 06:24:55;;;;;;;19.27;14.83;;;12.30;99.90;;;;;;5092828;28;20232;-56
2022/10/27 06:27:23;;;;;;;21.53;16.40;;;12.30;99.90;;;;;;5092476;28;20241;-57
2022/10/27 06:29:51;;;;;;;21.40;16.33;;;12.30;99.90;;;;;;5093012;28;20232;-55
2022/10/27 06:32:19;;;;;;;18.20;15.90;;;12.30;99.90;;;;;;5092463;28;20597;-56
2022/10/27 06:34:47;;;;;;;19.10;15.20;;;12.30;99.90;;;;;;5093989;28;20651;-56
2022/10/27 06:37:16;;;;;;;16.77;14.70;;;12.30;99.90;;;;;;5096424;28;20244;-56
2022/10/27 06:39:45;;;;;;;16.90;14.93;;;12.30;99.90;;;;;;5114257;28;20236;-56
2022/10/27 06:42:13;;;;;;;17.07;15.37;;;12.30;99.90;;;;;;5117151;28;20232;-57
2022/10/27 06:44:50;;;;;;;20.57;15.13;;;12.30;99.90;;;;;;5098422;28;20311;-57
2022/10/27 06:47:18;;;;;;;17.20;15.20;;;12.30;99.90;;;;;;5116652;28;20229;-57
2022/10/27 06:49:46;;;;;;;17.80;15.60;;;12.30;99.90;;;;;;5112749;28;20897;-57
2022/10/27 06:52:15;;;;;;;18.90;15.57;;;12.30;99.90;;;;;;5103098;28;20228;-57
2022/10/27 06:54:43;;;;;;;17.23;15.50;;;12.30;99.90;;;;;;5075823;28;20240;-57
2022/10/27 06:57:11;;;;;;;18.70;16.10;;;12.30;99.90;;;;;;5075897;28;20581;-57
2022/10/27 06:59:40;;;;;;;16.53;14.83;;;12.30;99.90;;;;;;5076103;28;20303;-57
2022/10/27 07:02:10;;;;;;;17.97;15.47;;;12.40;99.90;;;;;;5075451;28;20239;-57
2022/10/27 07:04:39;;;;;;;17.93;14.93;;;12.40;99.90;;;;;;5075847;28;20574;-56
2022/10/27 07:07:07;;;;;;;17.13;15.00;;;12.40;99.90;;;;;;5076124;28;20701;-56
2022/10/27 07:09:36;;;;;;;17.97;14.60;;;12.40;99.90;;;;;;5075761;28;20229;-56
2022/10/27 07:12:04;;;;;;;18.93;14.27;;;12.40;99.90;;;;;;5075847;28;20236;-57
2022/10/27 07:14:32;;;;;;;19.63;16.20;;;12.40;99.90;;;;;;5075599;28;20221;-56
2022/10/27 07:17:00;;;;;;;19.13;14.63;;;12.40;99.90;;;;;;5075728;28;20302;-56
2022/10/27 07:19:28;;;;;;;16.63;14.80;;;12.40;99.90;;;;;;5084671;28;20219;-56
2022/10/27 07:21:56;;;;;;;20.60;15.90;;;12.40;99.90;;;;;;5107785;28;20236;-57
2022/10/27 07:24:24;;;;;;;20.23;15.60;;;12.40;99.90;;;;;;5115878;28;20281;-55
2022/10/27 07:26:53;;;;;;;18.60;16.10;;;12.40;99.90;;;;;;5116118;28;20556;-57
2022/10/27 07:29:21;;;;;;;25.70;16.43;;;12.50;99.90;;;;;;5108062;28;20231;-57
2022/10/27 07:31:49;;;;;;;17.97;15.10;;;12.50;99.90;;;;;;5115283;28;20236;-57
2022/10/27 07:34:17;;;;;;;20.20;15.97;;;12.50;99.90;;;;;;5116140;28;20568;-56
2022/10/27 07:36:45;;;;;;;20.97;16.20;;;12.50;99.90;;;;;;5115778;28;20249;-57
2022/10/27 07:39:13;;;;;;;20.83;16.70;;;12.60;99.90;;;;;;5115740;28;20266;-57
2022/10/27 07:41:41;;;;;;;21.17;16.60;;;12.60;99.90;;;;;;5115497;28;20217;-57
2022/10/27 07:44:11;;;;;;;21.17;16.20;;;12.60;99.90;;;;;;5115637;28;20231;-57
2022/10/27 07:46:39;;;;;;;20.47;16.50;;;12.70;99.90;;;;;;5114490;28;20596;-57
2022/10/27 07:49:07;;;;;;;20.10;17.63;;;12.80;99.90;;;;;;5115479;28;20236;-55
2022/10/27 07:51:35;;;;;;;24.70;18.60;;;12.80;99.90;;;;;;5108130;28;20646;-57
2022/10/27 07:54:04;;;;;;;22.60;17.63;;;12.80;99.90;;;;;;5114958;28;20232;-56
2022/10/27 07:56:32;;;;;;;22.50;17.23;;;12.70;99.90;;;;;;5115312;28;20223;-57
2022/10/27 07:59:00;;;;;;;21.50;17.00;;;12.80;99.90;;;;;;5115412;28;20213;-57
2022/10/27 08:01:29;;;;;;;23.97;18.30;;;12.90;99.90;;;;;;5114924;28;20267;-56
2022/10/27 08:03:57;;;;;;;24.87;19.77;;;13.00;99.90;;;;;;5115723;28;20225;-56
2022/10/27 08:06:25;;;;;;;21.37;18.17;;;13.10;99.90;;;;;;5115420;28;20241;-55
2022/10/27 08:08:53;;;;;;;22.80;17.67;;;13.40;99.90;;;;;;5115218;28;20258;-57
2022/10/27 08:11:22;;;;;;;22.50;17.83;;;13.60;99.90;;;;;;5107397;28;20236;-55
2022/10/27 08:13:51;;;;;;;20.73;17.80;;;13.70;99.90;;;;;;5114993;28;20230;-56
2022/10/27 08:16:19;;;;;;;23.73;18.20;;;13.80;99.90;;;;;;5106575;28;20228;-57
2022/10/27 08:18:48;;;;;;;20.33;17.43;;;13.70;99.90;;;;;;5115126;28;20274;-56
2022/10/27 08:21:16;;;;;;;19.80;17.73;;;13.80;99.90;;;;;;5110489;28;20291;-57
2022/10/27 08:23:44;;;;;;;23.73;17.20;;;14.00;99.90;;;;;;5111505;28;20225;-57
2022/10/27 08:26:12;;;;;;;19.87;17.13;;;14.10;99.90;;;;;;5114791;28;20234;-57
2022/10/27 08:28:40;;;;;;;20.97;16.97;;;14.30;99.90;;;;;;5114559;28;20222;-56
2022/10/27 08:31:08;;;;;;;17.40;15.53;;;14.30;99.90;;;;;;5114293;28;20233;-57
2022/10/27 08:33:36;;;;;;;18.50;15.57;;;14.40;99.90;;;;;;5114567;28;20220;-57
2022/10/27 08:36:06;;;;;;;18.03;15.20;;;14.60;99.90;;;;;;5114683;28;20220;-57
2022/10/27 08:38:35;;;;;;;18.10;14.70;;;14.70;99.90;;;;;;5114469;28;20217;-58
2022/10/27 08:41:25;;;;;;;15.13;13.53;;;14.90;99.90;;;;;;5114806;28;20225;-57
2022/10/27 08:44:08;;;;;;;16.43;13.83;;;15.10;99.90;;;;;;5109344;28;20709;-56
2022/10/27 08:46:41;;;;;;;17.80;13.87;;;15.20;99.90;;;;;;5114295;28;20629;-56
2022/10/27 08:49:21;;;;;;;16.37;12.70;;;15.40;99.90;;;;;;5114191;28;20249;-56
2022/10/27 08:51:52;;;;;;;14.80;12.67;;;15.40;99.90;;;;;;5094858;28;20232;-56
2022/10/27 08:54:23;;;;;;;13.90;12.17;;;15.50;99.90;;;;;;5112044;28;20716;-55
2022/10/27 08:56:54;;;;;;;16.90;12.67;;;15.50;99.90;;;;;;5073373;28;20222;-56
2022/10/27 08:59:25;;;;;;;13.77;10.93;;;15.60;99.90;;;;;;5073567;28;20294;-56
2022/10/27 09:01:59;;;;;;;15.77;11.63;;;15.90;99.90;;;;;;5073332;28;20285;-56
2022/10/27 09:04:53;;;;;;;12.47;10.60;;;16.00;99.90;;;;;;5073179;28;20233;-56
2022/10/27 09:07:31;;;;;;;12.17;10.50;;;16.20;99.90;;;;;;5073606;28;20256;-54
2022/10/27 09:10:03;;;;;;;14.13;10.43;;;16.30;99.90;;;;;;5073562;28;20717;-56
2022/10/27 09:12:59;;;;;;;12.73;10.63;;;16.50;99.90;;;;;;5073178;28;20666;-56
2022/10/27 09:15:36;;;;;;;10.63;9.53;;;16.50;99.90;;;;;;5073115;28;20258;-56
2022/10/27 09:18:09;;;;;;;13.10;9.30;;;16.70;99.90;;;;;;5073176;28;20247;-57
2022/10/27 09:20:43;;;;;;;10.70;8.33;;;17.00;99.90;;;;;;5101692;28;20234;-56
2022/10/27 09:23:16;;;;;;;12.83;8.50;;;17.00;99.90;;;;;;5085171;28;20237;-57
2022/10/27 09:25:47;;;;;;;9.40;7.90;;;17.10;99.90;;;;;;5093348;28;20648;-56
2022/10/27 09:28:22;;;;;;;11.67;7.30;;;17.30;99.90;;;;;;5093440;28;20317;-56
2022/10/27 09:30:53;;;;;;;9.97;8.07;;;17.30;99.90;;;;;;5092792;28;20233;-57
2022/10/27 09:33:27;;;;;;;10.33;7.70;;;17.30;99.90;;;;;;5093110;28;20246;-56
2022/10/27 09:35:56;;;;;;;11.33;8.10;;;17.30;99.90;;;;;;5093032;28;20267;-57
2022/10/27 09:38:27;;;;;;;10.07;7.27;;;17.20;99.90;;;;;;5093233;28;20234;-57
2022/10/27 09:40:55;;;;;;;10.13;7.90;;;17.10;99.90;;;;;;5093103;28;20230;-57
2022/10/27 09:43:23;;;;;;;11.57;7.60;;;17.20;99.90;;;;;;5093076;28;20227;-57
2022/10/27 09:45:59;;;;;;;9.93;7.53;;;17.20;99.90;;;;;;5093235;28;20226;-57
2022/10/27 09:48:28;;;;;;;10.30;7.10;;;17.20;99.90;;;;;;5092660;28;20232;-56
2022/10/27 09:51:01;;;;;;;9.27;7.27;;;17.20;99.90;;;;;;5108372;28;20237;-57
2022/10/27 09:53:47;;;;;;;10.53;7.57;;;17.30;99.90;;;;;;5107204;28;20233;-56
2022/10/27 09:56:18;;;;;;;11.23;6.83;;;17.30;99.90;;;;;;5113226;28;20229;-57
2022/10/27 09:58:56;;;;;;;10.53;7.10;;;17.40;99.90;;;;;;5113054;28;20738;-56
2022/10/27 10:01:44;;;;;;;8.00;6.40;;;17.40;99.90;;;;;;5113028;28;20230;-57
2022/10/27 10:04:19;;;;;;;8.93;6.37;;;17.50;99.90;;;;;;5113400;28;20222;-57
2022/10/27 10:06:54;;;;;;;11.33;6.27;;;17.50;99.90;;;;;;5113237;28;20225;-57
2022/10/27 10:09:29;;;;;;;7.10;6.27;;;17.60;99.90;;;;;;5112568;28;20243;-57
2022/10/27 10:12:18;;;;;;;8.07;5.93;;;17.70;99.90;;;;;;5113333;28;20236;-57
2022/10/27 10:14:51;;;;;;;10.03;6.63;;;17.80;99.90;;;;;;5113266;28;20581;-57
2022/10/27 10:17:22;;;;;;;11.37;6.30;;;17.80;99.90;;;;;;5113285;28;20233;-57
2022/10/27 10:19:52;;;;;;;7.40;5.97;;;17.90;99.90;;;;;;5112959;28;20677;-55
2022/10/27 10:22:24;;;;;;;8.77;6.00;;;17.90;99.90;;;;;;5104640;28;20573;-54
2022/10/27 10:24:55;;;;;;;10.43;5.80;;;18.00;99.90;;;;;;5112915;28;20233;-55
2022/10/27 10:27:34;;;;;;;8.03;5.57;;;18.10;99.90;;;;;;5105290;28;20685;-55
2022/10/27 10:30:04;;;;;;;7.70;5.20;;;18.10;99.90;;;;;;5112812;28;20229;-55
2022/10/27 10:32:35;;;;;;;9.43;6.00;;;18.40;99.90;;;;;;5112228;28;20283;-55
2022/10/27 10:35:23;;;;;;;8.30;6.17;;;18.40;99.90;;;;;;5113116;28;20677;-55
2022/10/27 10:37:52;;;;;;;8.27;5.70;;;18.40;99.90;;;;;;5112638;28;20582;-55
2022/10/27 10:40:29;;;;;;;8.43;5.33;;;18.40;99.90;;;;;;5113017;28;20642;-55
2022/10/27 10:43:17;;;;;;;6.37;5.77;;;18.40;99.90;;;;;;5112799;28;20225;-55
2022/10/27 10:45:51;;;;;;;6.40;4.47;;;18.40;99.90;;;;;;5081135;28;20231;-54
2022/10/27 10:48:38;;;;;;;9.47;5.97;;;18.50;99.90;;;;;;5072111;28;20223;-55
2022/10/27 10:51:08;;;;;;;6.93;5.13;;;18.50;99.90;;;;;;5106931;28;20234;-55
2022/10/27 10:53:41;;;;;;;8.23;6.10;;;18.50;99.90;;;;;;5108379;28;20228;-55
2022/10/27 10:56:28;;;;;;;8.63;5.17;;;18.50;99.90;;;;;;5112580;28;20237;-55
2022/10/27 10:59:04;;;;;;;7.77;4.97;;;18.50;99.90;;;;;;5112656;28;20238;-55
2022/10/27 11:01:41;;;;;;;8.37;5.10;;;18.50;99.90;;;;;;5112123;28;20243;-55
2022/10/27 11:04:12;;;;;;;7.60;4.93;;;18.70;99.90;;;;;;5112781;28;20237;-55
2022/10/27 11:07:01;;;;;;;8.40;4.60;;;19.10;99.90;;;;;;5112623;28;20222;-55
2022/10/27 11:09:35;;;;;;;5.83;4.03;;;19.50;99.90;;;;;;5112582;28;20238;-56
2022/10/27 11:12:05;;;;;;;6.13;4.20;;;19.80;99.90;;;;;;5112756;28;20306;-55
2022/10/27 11:14:34;;;;;;;7.57;4.50;;;20.00;99.90;;;;;;5113024;28;20624;-56
2022/10/27 11:17:06;;;;;;;10.93;4.40;;;20.20;99.90;;;;;;5112761;28;20209;-55
2022/10/27 11:19:39;;;;;;;7.27;4.10;;;20.00;99.90;;;;;;5112764;28;20234;-55
2022/10/27 11:22:14;;;;;;;9.00;4.03;;;20.10;99.90;;;;;;5107481;28;20278;-56
2022/10/27 11:24:52;;;;;;;6.70;3.87;;;20.10;99.90;;;;;;5115936;28;20225;-55
2022/10/27 11:27:27;;;;;;;6.27;3.80;;;20.20;99.90;;;;;;5116014;28;20307;-54
2022/10/27 11:30:02;;;;;;;7.00;4.00;;;20.00;99.90;;;;;;5116122;28;20232;-55
2022/10/27 11:32:40;;;;;;;5.27;3.70;;;20.10;99.90;;;;;;5115634;28;20234;-55
2022/10/27 11:35:16;;;;;;;5.30;3.53;;;20.10;99.90;;;;;;5116150;28;20783;-56
2022/10/27 11:37:53;;;;;;;5.30;3.67;;;20.00;99.90;;;;;;5115700;28;20248;-55
2022/10/27 11:40:33;;;;;;;6.60;3.60;;;20.00;99.90;;;;;;5115983;28;20228;-55
2022/10/27 11:43:05;;;;;;;6.13;3.30;;;20.10;99.90;;;;;;5115753;28;20215;-55
2022/10/27 11:45:39;;;;;;;8.67;3.33;;;19.90;99.90;;;;;;5116066;28;20242;-55
2022/10/27 11:48:13;;;;;;;6.23;3.37;;;19.70;99.90;;;;;;5115931;28;20711;-55
2022/10/27 11:50:47;;;;;;;7.47;3.17;;;19.70;99.90;;;;;;5115126;28;20243;-55
2022/10/27 11:53:15;;;;;;;7.87;3.50;;;19.70;99.90;;;;;;5087937;28;20292;-56
2022/10/27 11:56:01;;;;;;;4.53;3.10;;;19.70;99.90;;;;;;5095170;28;20687;-54
2022/10/27 11:58:42;;;;;;;6.43;3.20;;;19.70;99.90;;;;;;5095020;28;20260;-56
2022/10/27 12:01:29;;;;;;;6.67;2.90;;;19.70;99.90;;;;;;5094511;28;20315;-55
2022/10/27 12:04:13;;;;;;;7.10;3.10;;;19.70;99.90;;;;;;5095025;28;20233;-55
2022/10/27 12:06:50;;;;;;;8.17;3.17;;;19.70;99.90;;;;;;5094679;28;20258;-55
2022/10/27 12:09:29;;;;;;;6.60;3.10;;;19.60;99.90;;;;;;5094775;28;20232;-55
2022/10/27 12:12:06;;;;;;;7.73;3.13;;;19.60;99.90;;;;;;5095094;28;20738;-56
2022/10/27 12:14:42;;;;;;;7.97;3.30;;;19.70;99.90;;;;;;5094520;28;20217;-56
2022/10/27 12:17:18;;;;;;;4.87;2.53;;;19.70;99.90;;;;;;5094940;28;20234;-56
2022/10/27 12:19:49;;;;;;;7.50;2.63;;;19.80;99.90;;;;;;5101857;28;20236;-56
2022/10/27 12:22:22;;;;;;;7.80;2.77;;;19.90;99.90;;;;;;5106374;28;20576;-55
2022/10/27 12:24:58;;;;;;;5.77;2.70;;;19.90;99.90;;;;;;5115086;28;20582;-56
2022/10/27 12:27:34;;;;;;;7.03;2.70;;;19.90;99.90;;;;;;5115038;28;20712;-55
2022/10/27 12:30:09;;;;;;;7.50;2.90;;;19.90;99.90;;;;;;5114637;28;20228;-54
2022/10/27 12:32:42;;;;;;;5.13;2.43;;;19.90;99.90;;;;;;5113667;28;20232;-55
2022/10/27 12:35:17;;;;;;;5.70;2.80;;;20.00;99.90;;;;;;5114752;28;20235;-56
2022/10/27 12:37:55;;;;;;;4.57;2.53;;;19.90;99.90;;;;;;5114312;28;20243;-55
2022/10/27 12:40:30;;;;;;;8.67;2.97;;;19.90;99.90;;;;;;5114855;28;20299;-55
2022/10/27 12:43:07;;;;;;;10.73;2.93;;;19.80;99.90;;;;;;5114805;28;20226;-54
2022/10/27 12:45:52;;;;;;;4.43;2.50;;;19.70;99.90;;;;;;5111193;28;20236;-55
2022/10/27 12:48:32;;;;;;;7.20;2.20;;;19.70;99.90;;;;;;5114329;28;20228;-55
2022/10/27 12:51:12;;;;;;;5.67;2.40;;;19.70;99.90;;;;;;5082238;28;20228;-56
2022/10/27 12:53:45;;;;;;;4.17;2.07;;;19.60;99.90;;;;;;5110089;28;20224;-55
2022/10/27 12:56:28;;;;;;;5.23;2.00;;;19.70;99.90;;;;;;5114346;28;20236;-55